Time;durP1;ratioP1;P1;durP2;ratioP2;P2;SDS_P1;SDS_P2;PMS_P1;PMS_P2;Temp;Humidity;BMP_temperature;BMP_pressure;BME280_temperature;BME280_humidity;BME280_pressure;Samples;Min_cycle;Max_cycle;Signal;HPM_P1;HPM_P2
2021/08/27 00:00:54;;;;;;;11.50;6.18;;;;;;;-140.79;100.00;63287.88;5007014;28;20035;-76
2021/08/27 00:03:20;;;;;;;11.55;6.57;;;;;;;-140.79;100.00;63287.88;5017261;28;20049;-74
2021/08/27 00:05:45;;;;;;;10.35;6.82;;;;;;;-140.79;100.00;63287.88;5026280;28;20041;-73
2021/08/27 00:08:11;;;;;;;12.43;6.28;;;;;;;-140.79;100.00;63287.88;5025296;28;20033;-73
2021/08/27 00:10:36;;;;;;;10.18;6.57;;;;;;;-140.79;100.00;63287.88;5023986;28;20052;-74
2021/08/27 00:13:02;;;;;;;13.05;7.07;;;;;;;-140.79;100.00;63287.88;5024561;28;20048;-75
2021/08/27 00:15:27;;;;;;;9.85;6.90;;;;;;;-140.79;100.00;63287.88;5026399;28;20029;-73
2021/08/27 00:17:53;;;;;;;10.35;6.28;;;;;;;-140.79;100.00;63287.88;5025559;28;20083;-73
2021/08/27 00:20:18;;;;;;;9.32;6.70;;;;;;;-140.79;100.00;63287.88;5025532;28;20037;-74
2021/08/27 00:22:44;;;;;;;11.23;6.57;;;;;;;-140.79;100.00;63287.88;5026284;28;20025;-74
2021/08/27 00:25:09;;;;;;;10.23;6.00;;;;;;;-140.79;100.00;63287.88;5026415;28;20037;-74
2021/08/27 00:27:35;;;;;;;9.38;6.55;;;;;;;-140.79;100.00;63287.88;5025888;28;20025;-75
2021/08/27 00:30:01;;;;;;;10.02;6.47;;;;;;;-140.79;100.00;63287.88;5027382;28;20554;-75
2021/08/27 00:32:27;;;;;;;9.77;6.30;;;;;;;-140.79;100.00;63287.88;5026110;28;20492;-74
2021/08/27 00:34:53;;;;;;;9.77;6.10;;;;;;;-140.79;100.00;63287.88;5023112;28;20503;-75
2021/08/27 00:37:19;;;;;;;8.85;5.97;;;;;;;-140.79;100.00;63287.88;5027686;28;20025;-74
2021/08/27 00:39:44;;;;;;;12.02;6.90;;;;;;;-140.79;100.00;63287.88;5026596;28;20499;-74
2021/08/27 00:42:10;;;;;;;9.50;6.00;;;;;;;-140.79;100.00;63287.88;5027309;28;20049;-74
2021/08/27 00:44:35;;;;;;;8.95;6.00;;;;;;;-140.79;100.00;63287.88;5041242;28;20543;-73
2021/08/27 00:47:01;;;;;;;10.90;6.13;;;;;;;-140.79;100.00;63287.88;5048805;28;20017;-74
2021/08/27 00:49:26;;;;;;;9.13;5.97;;;;;;;-140.79;100.00;63287.88;5049480;28;20025;-75
2021/08/27 00:51:52;;;;;;;10.77;5.32;;;;;;;-140.79;100.00;63287.88;5048067;28;20029;-74
2021/08/27 00:54:19;;;;;;;7.72;5.70;;;;;;;-140.79;100.00;63287.88;5038067;28;20518;-74
2021/08/27 00:56:44;;;;;;;7.78;5.03;;;;;;;-140.79;100.00;63287.88;5027643;28;20694;-74
2021/08/27 00:59:09;;;;;;;10.45;5.43;;;;;;;-140.79;100.00;63287.88;5027063;28;20083;-75
2021/08/27 01:01:35;;;;;;;9.70;4.80;;;;;;;-140.79;100.00;63287.88;5026732;28;20037;-75
2021/08/27 01:04:00;;;;;;;7.30;4.40;;;;;;;-140.79;100.00;63287.88;5025811;28;20037;-73
2021/08/27 01:06:47;;;;;;;8.35;4.25;;;;;;;-140.79;100.00;63287.88;5025560;28;20026;-73
2021/08/27 01:09:20;;;;;;;8.27;4.45;;;;;;;-140.79;100.00;63287.88;5024308;28;20048;-73
2021/08/27 01:12:14;;;;;;;8.00;4.35;;;;;;;-140.79;100.00;63287.88;5026872;28;20021;-73
2021/08/27 01:14:41;;;;;;;7.25;4.35;;;;;;;-140.79;100.00;63287.88;5023187;28;20053;-75
2021/08/27 01:17:14;;;;;;;9.75;5.25;;;;;;;-140.79;100.00;63287.88;5024743;28;20029;-75
2021/08/27 01:19:58;;;;;;;9.80;4.80;;;;;;;-140.79;100.00;63287.88;5004114;28;20651;-75
2021/08/27 01:22:26;;;;;;;8.90;4.50;;;;;;;-140.79;100.00;63287.88;5005630;28;20038;-75
2021/08/27 01:24:52;;;;;;;8.90;4.53;;;;;;;-140.79;100.00;63287.88;5013680;28;20030;-75
2021/08/27 01:27:18;;;;;;;8.55;4.30;;;;;;;-140.79;100.00;63287.88;5024202;28;20582;-75
2021/08/27 01:30:02;;;;;;;6.97;4.25;;;;;;;-140.79;100.00;63287.88;5023384;28;20029;-75
2021/08/27 01:32:34;;;;;;;7.75;4.88;;;;;;;-140.79;100.00;63287.88;5025210;28;20037;-75
2021/08/27 01:34:59;;;;;;;8.23;4.68;;;;;;;-140.79;100.00;63287.88;5023835;28;20048;-75
2021/08/27 01:37:24;;;;;;;8.10;5.82;;;;;;;-140.79;100.00;63287.88;5024723;28;20503;-75
2021/08/27 01:39:52;;;;;;;9.10;4.80;;;;;;;-140.79;100.00;63287.88;5007573;28;20021;-75
2021/08/27 01:42:19;;;;;;;7.30;4.78;;;;;;;-140.79;100.00;63287.88;5007731;28;20045;-74
2021/08/27 01:44:45;;;;;;;6.03;3.72;;;;;;;-140.79;100.00;63287.88;5025730;28;20415;-75
2021/08/27 01:47:11;;;;;;;7.63;4.05;;;;;;;-140.79;100.00;63287.88;5024310;28;20025;-75
2021/08/27 01:49:36;;;;;;;7.50;3.90;;;;;;;-140.79;100.00;63287.88;5003536;28;20041;-74
2021/08/27 01:52:05;;;;;;;8.10;4.53;;;;;;;-140.79;100.00;63287.88;5023500;28;20029;-75
2021/08/27 01:54:30;;;;;;;9.95;4.53;;;;;;;-140.79;100.00;63287.88;5024169;28;20663;-74
2021/08/27 01:56:56;;;;;;;8.32;4.07;;;;;;;-140.79;100.00;63287.88;5021691;28;20040;-74
2021/08/27 01:59:21;;;;;;;8.93;4.65;;;;;;;-140.79;100.00;63287.88;5007179;28;20036;-74
2021/08/27 02:01:47;;;;;;;9.43;4.75;;;;;;;-140.79;100.00;63287.88;5023236;28;20021;-75
2021/08/27 02:04:14;;;;;;;7.32;4.85;;;;;;;-140.79;100.00;63287.88;5025508;28;20033;-74
2021/08/27 02:06:40;;;;;;;6.97;4.28;;;;;;;-140.79;100.00;63287.88;5007102;28;20124;-74
2021/08/27 02:09:05;;;;;;;9.27;4.72;;;;;;;-140.79;100.00;63287.88;5024002;28;20072;-74
2021/08/27 02:11:31;;;;;;;9.95;5.18;;;;;;;-140.79;100.00;63287.88;5022812;28;20086;-74
2021/08/27 02:13:57;;;;;;;9.95;5.65;;;;;;;-140.79;100.00;63287.88;5023756;28;20029;-74
2021/08/27 02:16:22;;;;;;;10.15;6.47;;;;;;;-140.79;100.00;63287.88;5007454;28;20029;-75
2021/08/27 02:18:48;;;;;;;12.15;6.20;;;;;;;-140.79;100.00;63287.88;5022794;28;20103;-75
2021/08/27 02:21:13;;;;;;;10.88;5.88;;;;;;;-140.79;100.00;63287.88;5024048;28;20617;-72
2021/08/27 02:23:40;;;;;;;9.05;6.43;;;;;;;-140.79;100.00;63287.88;5006567;28;20033;-76
2021/08/27 02:26:05;;;;;;;10.45;5.60;;;;;;;-140.79;100.00;63287.88;5024193;28;20152;-75
2021/08/27 02:28:31;;;;;;;8.65;5.38;;;;;;;-140.79;100.00;63287.88;5010698;28;20103;-75
2021/08/27 02:30:56;;;;;;;7.72;5.32;;;;;;;-140.79;100.00;63287.88;5027003;28;20029;-75
2021/08/27 02:33:22;;;;;;;9.48;5.50;;;;;;;-140.79;100.00;63287.88;5024387;28;20021;-76
2021/08/27 02:35:48;;;;;;;9.70;5.60;;;;;;;-140.79;100.00;63287.88;5026683;28;20025;-74
2021/08/27 02:38:16;;;;;;;8.50;5.72;;;;;;;-140.79;100.00;63287.88;5026959;28;20029;-75
2021/08/27 02:40:41;;;;;;;8.10;5.53;;;;;;;-140.79;100.00;63287.88;5026641;28;20029;-74
2021/08/27 02:43:07;;;;;;;9.15;5.15;;;;;;;-140.79;100.00;63287.88;5026486;28;20025;-76
2021/08/27 02:45:32;;;;;;;9.02;4.80;;;;;;;-140.79;100.00;63287.88;5028066;28;20025;-76
2021/08/27 02:47:58;;;;;;;7.65;4.40;;;;;;;-140.79;100.00;63287.88;5027458;28;20498;-74
2021/08/27 02:50:23;;;;;;;7.30;4.07;;;;;;;-140.79;100.00;63287.88;5027496;28;20484;-75
2021/08/27 02:52:55;;;;;;;9.48;4.65;;;;;;;-140.79;100.00;63287.88;5027618;28;20033;-75
2021/08/27 02:55:22;;;;;;;7.57;4.40;;;;;;;-140.79;100.00;63287.88;5010076;28;20486;-75
2021/08/27 02:58:14;;;;;;;7.63;4.43;;;;;;;-140.79;100.00;63287.88;5026141;28;20025;-74
2021/08/27 03:01:05;;;;;;;8.88;4.50;;;;;;;-140.79;100.00;63287.88;5027751;28;20045;-75
2021/08/27 03:03:32;;;;;;;9.90;4.45;;;;;;;-140.79;100.00;63287.88;5016864;28;20124;-78
2021/08/27 03:06:03;;;;;;;6.75;4.35;;;;;;;-140.79;100.00;63287.88;5019102;28;20042;-74
2021/08/27 03:08:28;;;;;;;7.25;4.25;;;;;;;-140.79;100.00;63287.88;5026159;28;20052;-72
2021/08/27 03:11:02;;;;;;;7.10;4.50;;;;;;;-140.79;100.00;63287.88;5010372;28;20496;-71
2021/08/27 03:13:48;;;;;;;6.47;4.20;;;;;;;-140.79;100.00;63287.88;5027040;28;20082;-71
2021/08/27 03:16:16;;;;;;;9.57;4.10;;;;;;;-140.79;100.00;63287.88;5009191;28;20040;-73
2021/08/27 03:18:49;;;;;;;6.15;3.78;;;;;;;-140.79;100.00;63287.88;5010233;28;20037;-73
2021/08/27 03:21:26;;;;;;;6.47;3.70;;;;;;;-140.79;100.00;63287.88;5015406;28;20651;-74
2021/08/27 03:23:52;;;;;;;10.45;4.63;;;;;;;-140.79;100.00;63287.88;5027837;28;20037;-73
2021/08/27 03:26:20;;;;;;;7.22;3.70;;;;;;;-140.79;100.00;63287.88;5025347;28;20811;-72
2021/08/27 03:28:49;;;;;;;7.43;3.45;;;;;;;-140.79;100.00;63287.88;5009755;28;20599;-72
2021/08/27 03:31:15;;;;;;;5.47;3.67;;;;;;;-140.79;100.00;63287.88;5009694;28;20104;-72
2021/08/27 03:33:40;;;;;;;5.78;3.50;;;;;;;-140.79;100.00;63287.88;5025527;28;20634;-72
2021/08/27 03:36:06;;;;;;;7.30;3.40;;;;;;;-140.79;100.00;63287.88;5025084;28;20483;-71
2021/08/27 03:38:31;;;;;;;8.60;3.58;;;;;;;-140.79;100.00;63287.88;5026843;28;20013;-76
2021/08/27 03:40:57;;;;;;;7.13;3.97;;;;;;;-140.79;100.00;63287.88;5026285;28;20067;-76
2021/08/27 03:43:22;;;;;;;5.50;3.75;;;;;;;-140.79;100.00;63287.88;5022397;28;20029;-77
2021/08/27 03:45:49;;;;;;;8.43;3.47;;;;;;;-140.79;100.00;63287.88;5025303;28;20110;-75
2021/08/27 03:48:14;;;;;;;6.45;4.20;;;;;;;-140.79;100.00;63287.88;5024905;28;20040;-75
2021/08/27 03:50:40;;;;;;;7.18;3.90;;;;;;;-140.79;100.00;63287.88;5026666;28;20025;-75
2021/08/27 03:53:06;;;;;;;7.88;4.07;;;;;;;-140.79;100.00;63287.88;5025474;28;20029;-76
2021/08/27 03:55:32;;;;;;;7.68;3.90;;;;;;;-140.79;100.00;63287.88;5009910;28;20034;-72
2021/08/27 03:57:57;;;;;;;7.13;4.07;;;;;;;-140.79;100.00;63287.88;5004121;28;20070;-72
2021/08/27 04:00:23;;;;;;;7.43;4.15;;;;;;;-140.79;100.00;63287.88;4996925;28;20041;-69
2021/08/27 04:02:49;;;;;;;6.95;4.22;;;;;;;-140.79;100.00;63287.88;4990411;28;20040;-72
2021/08/27 04:05:17;;;;;;;7.85;4.18;;;;;;;-140.79;100.00;63287.88;5016000;28;20049;-72
2021/08/27 04:07:42;;;;;;;7.55;4.10;;;;;;;-140.79;100.00;63287.88;5011061;28;20033;-72
2021/08/27 04:10:09;;;;;;;6.80;4.00;;;;;;;-140.79;100.00;63287.88;5007292;28;20038;-73
2021/08/27 04:12:35;;;;;;;7.75;4.22;;;;;;;-140.79;100.00;63287.88;4998031;28;20025;-73
2021/08/27 04:15:02;;;;;;;7.28;3.75;;;;;;;-140.79;100.00;63287.88;5012520;28;20125;-70
2021/08/27 04:17:27;;;;;;;7.82;4.10;;;;;;;-140.79;100.00;63287.88;4993862;28;20026;-73
2021/08/27 04:19:53;;;;;;;7.50;3.80;;;;;;;-140.79;100.00;63287.88;5007330;28;20026;-75
2021/08/27 04:22:18;;;;;;;8.20;3.65;;;;;;;-140.79;100.00;63287.88;5004825;28;20504;-73
2021/08/27 04:24:44;;;;;;;9.10;4.05;;;;;;;-140.79;100.00;63287.88;4999381;28;20026;-81
2021/08/27 04:27:09;;;;;;;7.40;4.28;;;;;;;-140.79;100.00;63287.88;4998866;28;20041;-71
2021/08/27 04:29:34;;;;;;;6.38;3.95;;;;;;;-140.79;100.00;63287.88;4993585;28;20018;-70
2021/08/27 04:32:01;;;;;;;7.45;4.10;;;;;;;-140.79;100.00;63287.88;4997571;28;20018;-70
2021/08/27 04:34:26;;;;;;;7.55;3.97;;;;;;;-140.79;100.00;63287.88;4994700;28;20022;-71
2021/08/27 04:36:52;;;;;;;9.65;4.45;;;;;;;-140.79;100.00;63287.88;4995520;28;20026;-71
2021/08/27 04:39:17;;;;;;;7.43;3.85;;;;;;;-140.79;100.00;63287.88;4996879;28;20026;-70
2021/08/27 04:41:43;;;;;;;6.68;4.05;;;;;;;-140.79;100.00;63287.88;4992832;28;20054;-71
2021/08/27 04:44:08;;;;;;;7.93;4.53;;;;;;;-140.79;100.00;63287.88;5003369;28;20300;-74
2021/08/27 04:46:33;;;;;;;6.80;4.00;;;;;;;-140.79;100.00;63287.88;5001156;28;20018;-73
2021/08/27 04:48:59;;;;;;;8.60;3.80;;;;;;;-140.79;100.00;63287.88;5004412;28;20040;-74
2021/08/27 04:51:24;;;;;;;6.65;3.88;;;;;;;-140.79;100.00;63287.88;5002821;28;20049;-72
2021/08/27 04:53:50;;;;;;;8.07;4.05;;;;;;;-140.79;100.00;63287.88;5003468;28;20126;-71
2021/08/27 04:56:15;;;;;;;7.88;4.22;;;;;;;-140.79;100.00;63287.88;5001788;28;20049;-72
2021/08/27 04:58:41;;;;;;;8.27;3.63;;;;;;;-140.79;100.00;63287.88;5000685;28;20412;-73
2021/08/27 05:01:07;;;;;;;7.70;3.90;;;;;;;-140.79;100.00;63287.88;5003476;28;20018;-72
2021/08/27 05:03:32;;;;;;;7.75;4.18;;;;;;;-140.79;100.00;63287.88;5001616;28;20028;-72
2021/08/27 05:05:58;;;;;;;5.90;3.42;;;;;;;-140.79;100.00;63287.88;5003713;28;20017;-73
2021/08/27 05:08:23;;;;;;;6.22;3.50;;;;;;;-140.79;100.00;63287.88;5003666;28;20030;-71
2021/08/27 05:10:49;;;;;;;6.25;3.90;;;;;;;-140.79;100.00;63287.88;5004778;28;20053;-72
2021/08/27 05:13:14;;;;;;;5.78;4.00;;;;;;;-140.79;100.00;63287.88;5004546;28;20045;-72
2021/08/27 05:15:40;;;;;;;9.07;4.07;;;;;;;-140.79;100.00;63287.88;5002413;28;20085;-71
2021/08/27 05:18:05;;;;;;;6.90;4.20;;;;;;;-140.79;100.00;63287.88;5004270;28;20037;-71
2021/08/27 05:20:31;;;;;;;6.50;3.75;;;;;;;-140.79;100.00;63287.88;5003121;28;20030;-71
2021/08/27 05:22:56;;;;;;;7.75;4.13;;;;;;;-140.79;100.00;63287.88;5005020;28;20481;-70
2021/08/27 05:25:21;;;;;;;6.43;3.90;;;;;;;-140.79;100.00;63287.88;5001848;28;20025;-70
2021/08/27 05:27:50;;;;;;;6.25;4.00;;;;;;;-140.79;100.00;63287.88;5000983;28;20104;-71
2021/08/27 05:30:18;;;;;;;6.97;4.00;;;;;;;-140.79;100.00;63287.88;5004286;28;20084;-72
2021/08/27 05:32:43;;;;;;;9.18;4.55;;;;;;;-140.79;100.00;63287.88;4998662;28;20029;-71
2021/08/27 05:35:09;;;;;;;5.78;4.13;;;;;;;-140.79;100.00;63287.88;5002485;28;20030;-72
2021/08/27 05:37:35;;;;;;;7.03;4.07;;;;;;;-140.79;100.00;63287.88;5001509;28;20022;-72
2021/08/27 05:40:00;;;;;;;8.40;3.90;;;;;;;-140.79;100.00;63287.88;5003594;28;20025;-74
2021/08/27 05:42:26;;;;;;;6.55;4.18;;;;;;;-140.79;100.00;63287.88;5001617;28;20042;-72
2021/08/27 05:44:51;;;;;;;5.70;4.05;;;;;;;-140.79;100.00;63287.88;5002452;28;20500;-76
2021/08/27 05:47:17;;;;;;;7.07;3.95;;;;;;;-140.79;100.00;63287.88;5001934;28;20030;-70
2021/08/27 05:49:42;;;;;;;6.50;4.38;;;;;;;-140.79;100.00;63287.88;4999510;28;20027;-71
2021/08/27 05:52:07;;;;;;;6.68;4.60;;;;;;;-140.79;100.00;63287.88;5000711;28;20044;-71
2021/08/27 05:54:33;;;;;;;6.95;4.40;;;;;;;-140.79;100.00;63287.88;5002861;28;20066;-71
2021/08/27 05:56:58;;;;;;;7.47;4.25;;;;;;;-140.79;100.00;63287.88;5004083;28;20026;-71
2021/08/27 05:59:24;;;;;;;7.57;4.88;;;;;;;-140.79;100.00;63287.88;4995011;28;20085;-72
2021/08/27 06:01:49;;;;;;;9.70;5.25;;;;;;;-140.79;100.00;63287.88;5001778;28;20103;-70
2021/08/27 06:04:15;;;;;;;9.15;5.93;;;;;;;-140.79;100.00;63287.88;5011277;28;20049;-77
2021/08/27 06:06:41;;;;;;;9.05;6.28;;;;;;;-140.79;100.00;63287.88;5008069;28;20321;-78
2021/08/27 06:09:06;;;;;;;8.95;5.80;;;;;;;-140.79;100.00;63287.88;5008174;28;20487;-73
2021/08/27 06:11:35;;;;;;;9.73;6.00;;;;;;;-140.79;100.00;63287.88;5009836;28;20085;-78
2021/08/27 06:14:01;;;;;;;8.82;5.97;;;;;;;-140.79;100.00;63287.88;5009654;28;20029;-75
2021/08/27 06:16:26;;;;;;;11.45;6.22;;;;;;;-140.79;100.00;63287.88;5008995;28;20519;-78
2021/08/27 06:18:52;;;;;;;9.30;5.60;;;;;;;-140.79;100.00;63287.88;4998810;28;20726;-76
2021/08/27 06:21:17;;;;;;;8.57;6.05;;;;;;;-140.79;100.00;63287.88;4999704;28;20532;-79
2021/08/27 06:23:43;;;;;;;9.10;6.50;;;;;;;-140.79;100.00;63287.88;5006808;28;20026;-73
2021/08/27 06:26:08;;;;;;;11.10;6.10;;;;;;;-140.79;100.00;63287.88;5003061;28;20036;-73
2021/08/27 06:28:33;;;;;;;10.95;6.57;;;;;;;-140.79;100.00;63287.88;5007443;28;20032;-73
2021/08/27 06:30:59;;;;;;;10.35;6.88;;;;;;;-140.79;100.00;63287.88;5004096;28;20041;-73
2021/08/27 06:33:25;;;;;;;9.43;6.40;;;;;;;-140.79;100.00;63287.88;5008141;28;20022;-73
2021/08/27 06:35:50;;;;;;;9.02;6.47;;;;;;;-140.79;100.00;63287.88;5000601;28;20038;-75
2021/08/27 06:38:23;;;;;;;8.65;6.20;;;;;;;-140.79;100.00;63287.88;5004180;28;20030;-70
2021/08/27 06:40:50;;;;;;;10.13;6.68;;;;;;;-140.79;100.00;63287.88;4994482;28;20033;-70
2021/08/27 06:43:15;;;;;;;8.75;6.07;;;;;;;-140.79;100.00;63287.88;4990883;28;20112;-71
2021/08/27 06:45:41;;;;;;;9.27;6.70;;;;;;;-140.79;100.00;63287.88;4990635;28;20073;-70
2021/08/27 06:48:06;;;;;;;8.98;6.40;;;;;;;-140.79;100.00;63287.88;5003391;28;20563;-71
2021/08/27 06:50:32;;;;;;;8.52;5.50;;;;;;;-140.79;100.00;63287.88;5006773;28;20605;-78
2021/08/27 06:52:57;;;;;;;9.73;5.85;;;;;;;-140.79;100.00;63287.88;5005113;28;20029;-73
2021/08/27 06:55:23;;;;;;;8.82;6.00;;;;;;;-140.79;100.00;63287.88;5006481;28;20295;-72
2021/08/27 06:57:48;;;;;;;10.52;6.00;;;;;;;-140.79;100.00;63287.88;5004636;28;20037;-71
2021/08/27 07:00:14;;;;;;;9.35;7.20;;;;;;;-140.79;100.00;63287.88;5003136;28;20041;-74
2021/08/27 07:02:40;;;;;;;9.02;5.90;;;;;;;-140.79;100.00;63287.88;5006981;28;20386;-72
2021/08/27 07:05:06;;;;;;;7.25;5.25;;;;;;;-140.79;100.00;63287.88;4999608;28;20030;-74
2021/08/27 07:07:31;;;;;;;8.10;5.90;;;;;;;-140.79;100.00;63287.88;5006465;28;20052;-74
2021/08/27 07:09:57;;;;;;;8.65;5.82;;;;;;;-140.79;100.00;63287.88;5003990;28;20033;-74
2021/08/27 07:12:22;;;;;;;8.43;5.95;;;;;;;-140.79;100.00;63287.88;5004890;28;20476;-73
2021/08/27 07:14:50;;;;;;;8.60;6.20;;;;;;;-140.79;100.00;63287.88;5004396;28;20169;-73
2021/08/27 07:17:18;;;;;;;10.35;6.20;;;;;;;-140.79;100.00;63287.88;5004720;28;20203;-74
2021/08/27 07:19:44;;;;;;;9.00;6.28;;;;;;;-140.79;100.00;63287.88;5005925;28;20033;-73
2021/08/27 07:22:09;;;;;;;8.82;6.47;;;;;;;-140.79;100.00;63287.88;5004787;28;20033;-73
2021/08/27 07:24:35;;;;;;;9.63;6.38;;;;;;;-140.79;100.00;63287.88;4999702;28;20026;-73
2021/08/27 07:27:00;;;;;;;9.27;6.40;;;;;;;-140.79;100.00;63287.88;5003124;28;20042;-74
2021/08/27 07:29:26;;;;;;;10.70;6.75;;;;;;;-140.79;100.00;63287.88;5004600;28;20044;-74
2021/08/27 07:31:51;;;;;;;9.43;6.55;;;;;;;-140.79;100.00;63287.88;5003347;28;20033;-74
2021/08/27 07:34:17;;;;;;;9.60;6.53;;;;;;;-140.79;100.00;63287.88;5004154;28;20034;-74
2021/08/27 07:36:42;;;;;;;10.90;6.68;;;;;;;-140.79;100.00;63287.88;5000184;28;20029;-73
2021/08/27 07:39:08;;;;;;;10.65;7.00;;;;;;;-140.79;100.00;63287.88;5005560;28;20462;-73
2021/08/27 07:41:33;;;;;;;9.68;6.47;;;;;;;-140.79;100.00;63287.88;5003992;28;20046;-74
2021/08/27 07:43:59;;;;;;;9.65;6.90;;;;;;;-140.79;100.00;63287.88;5006324;28;20065;-73
2021/08/27 07:46:24;;;;;;;10.20;6.07;;;;;;;-140.79;100.00;63287.88;4999944;28;20081;-73
2021/08/27 07:48:50;;;;;;;8.40;6.57;;;;;;;-140.79;100.00;63287.88;4987505;28;20050;-74
2021/08/27 07:51:16;;;;;;;11.30;6.93;;;;;;;-140.79;100.00;63287.88;4988738;28;20030;-73
2021/08/27 07:53:42;;;;;;;15.40;7.15;;;;;;;-140.79;100.00;63287.88;5002987;28;20018;-72
2021/08/27 07:56:07;;;;;;;9.82;7.63;;;;;;;-140.79;100.00;63287.88;5005780;28;20025;-72
2021/08/27 07:58:33;;;;;;;9.73;7.15;;;;;;;-140.79;100.00;63287.88;5001756;28;20085;-72
2021/08/27 08:00:58;;;;;;;10.75;8.02;;;;;;;-140.79;100.00;63287.88;5000433;28;20245;-71
2021/08/27 08:03:23;;;;;;;11.25;8.27;;;;;;;-140.79;100.00;63287.88;5004412;28;20022;-72
2021/08/27 08:05:49;;;;;;;10.88;7.72;;;;;;;-140.79;100.00;63287.88;5003208;28;20038;-72
2021/08/27 08:08:14;;;;;;;12.52;8.20;;;;;;;-140.79;100.00;63287.88;5003557;28;20044;-72
2021/08/27 08:10:40;;;;;;;11.68;7.68;;;;;;;-140.79;100.00;63287.88;5003924;28;20026;-73
2021/08/27 08:13:05;;;;;;;11.88;8.73;;;;;;;-140.79;100.00;63287.88;5003195;28;20084;-73
2021/08/27 08:15:31;;;;;;;12.10;8.23;;;;;;;-140.79;100.00;63287.88;5003383;28;20109;-73
2021/08/27 08:17:56;;;;;;;13.48;8.70;;;;;;;-140.79;100.00;63287.88;5006021;28;20034;-71
2021/08/27 08:20:22;;;;;;;13.82;8.48;;;;;;;-140.79;100.00;63287.88;5004490;28;20025;-73
2021/08/27 08:22:47;;;;;;;12.68;8.55;;;;;;;-140.79;100.00;63287.88;5002897;28;20352;-73
2021/08/27 08:25:13;;;;;;;13.15;8.68;;;;;;;-140.79;100.00;63287.88;5001947;28;20152;-73
2021/08/27 08:27:38;;;;;;;13.68;9.15;;;;;;;-140.79;100.00;63287.88;5005377;28;20033;-73
2021/08/27 08:30:04;;;;;;;15.82;8.98;;;;;;;-140.79;100.00;63287.88;5005431;28;20419;-74
2021/08/27 08:32:29;;;;;;;15.63;8.70;;;;;;;-140.79;100.00;63287.88;5003634;28;20155;-72
2021/08/27 08:34:55;;;;;;;14.02;8.85;;;;;;;-140.79;100.00;63287.88;5005706;28;20027;-72
2021/08/27 08:37:21;;;;;;;12.75;8.95;;;;;;;-140.79;100.00;63287.88;5003399;28;20026;-73
2021/08/27 08:39:47;;;;;;;15.15;9.07;;;;;;;-140.79;100.00;63287.88;5004547;28;20033;-73
2021/08/27 08:42:13;;;;;;;13.55;8.32;;;;;;;-140.79;100.00;63287.88;5004581;28;20045;-75
2021/08/27 08:44:38;;;;;;;15.52;9.02;;;;;;;-140.79;100.00;63287.88;4997247;28;20104;-72
2021/08/27 08:47:06;;;;;;;11.52;8.95;;;;;;;-140.79;100.00;63287.88;4995521;28;20022;-72
2021/08/27 08:49:32;;;;;;;16.05;8.98;;;;;;;-140.79;100.00;63287.88;4989803;28;20026;-72
2021/08/27 08:51:58;;;;;;;15.07;9.50;;;;;;;-140.79;100.00;63287.88;4992648;28;20093;-73
2021/08/27 08:54:23;;;;;;;12.10;8.70;;;;;;;-140.79;100.00;63287.88;4991733;28;20030;-72
2021/08/27 08:56:48;;;;;;;15.18;8.95;;;;;;;-140.79;100.00;63287.88;4990563;28;20030;-71
2021/08/27 08:59:14;;;;;;;13.98;9.52;;;;;;;-140.79;100.00;63287.88;4996947;28;20037;-72
2021/08/27 09:01:40;;;;;;;11.05;8.32;;;;;;;-140.79;100.00;63287.88;4992375;28;20057;-71
2021/08/27 09:04:05;;;;;;;13.88;8.75;;;;;;;-140.79;100.00;63287.88;4995830;28;20715;-77
2021/08/27 09:06:31;;;;;;;12.95;8.98;;;;;;;-140.79;100.00;63287.88;5005689;28;20034;-80
2021/08/27 09:09:00;;;;;;;13.90;9.07;;;;;;;-140.79;100.00;63287.88;5005983;28;20086;-72
2021/08/27 09:11:26;;;;;;;12.90;9.40;;;;;;;-140.79;100.00;63287.88;5004282;28;20116;-73
2021/08/27 09:13:58;;;;;;;11.52;8.88;;;;;;;-140.79;100.00;63287.88;5019790;28;20602;-73
2021/08/27 09:16:26;;;;;;;13.65;9.02;;;;;;;-140.79;100.00;63287.88;5018966;28;20030;-73
2021/08/27 09:18:52;;;;;;;13.15;8.27;;;;;;;-140.79;100.00;63287.88;5005397;28;20033;-72
2021/08/27 09:21:45;;;;;;;12.70;9.00;;;;;;;-140.79;100.00;63287.88;5005520;28;20042;-72
2021/08/27 09:24:16;;;;;;;14.50;8.55;;;;;;;-140.79;100.00;63287.88;5005465;28;20068;-72
2021/08/27 09:26:43;;;;;;;14.48;9.13;;;;;;;-140.79;100.00;63287.88;5005729;28;20084;-72
2021/08/27 09:29:09;;;;;;;14.80;9.60;;;;;;;-140.79;100.00;63287.88;5004153;28;20120;-74
2021/08/27 09:31:35;;;;;;;13.05;8.80;;;;;;;-140.79;100.00;63287.88;5004344;28;20113;-72
2021/08/27 09:34:01;;;;;;;17.30;9.57;;;;;;;-140.79;100.00;63287.88;5004412;28;20042;-72
2021/08/27 09:36:28;;;;;;;15.70;9.52;;;;;;;-140.79;100.00;63287.88;5005816;28;20026;-72
2021/08/27 09:39:07;;;;;;;13.98;9.25;;;;;;;-140.79;100.00;63287.88;5003059;28;20034;-73
2021/08/27 09:41:34;;;;;;;12.93;9.10;;;;;;;-140.79;100.00;63287.88;5006097;28;20053;-72
2021/08/27 09:44:01;;;;;;;13.77;9.45;;;;;;;-140.79;100.00;63287.88;5004629;28;20475;-72
2021/08/27 09:46:34;;;;;;;14.60;9.25;;;;;;;-140.79;100.00;63287.88;5005730;28;20061;-72
2021/08/27 09:49:00;;;;;;;14.95;9.73;;;;;;;-140.79;100.00;63287.88;5005727;28;20044;-75
2021/08/27 09:51:39;;;;;;;15.00;10.05;;;;;;;-140.79;100.00;63287.88;4999662;28;20025;-74
2021/08/27 09:54:05;;;;;;;17.50;9.85;;;;;;;-140.79;100.00;63287.88;5005860;28;20026;-74
2021/08/27 09:56:47;;;;;;;15.52;9.60;;;;;;;-140.79;100.00;63287.88;5004528;28;20500;-71
2021/08/27 09:59:13;;;;;;;17.63;9.35;;;;;;;-140.79;100.00;63287.88;5005686;28;20032;-73
2021/08/27 10:01:48;;;;;;;14.15;9.30;;;;;;;-140.79;100.00;63287.88;5006304;28;20029;-78
2021/08/27 10:04:14;;;;;;;13.30;8.80;;;;;;;-140.79;100.00;63287.88;5007443;28;20677;-80
2021/08/27 10:06:40;;;;;;;13.25;9.40;;;;;;;-140.79;100.00;63287.88;5004996;28;20041;-74
2021/08/27 10:09:05;;;;;;;14.10;9.68;;;;;;;-140.79;100.00;63287.88;5005682;28;20034;-75
2021/08/27 10:11:31;;;;;;;11.70;8.32;;;;;;;-140.79;100.00;63287.88;5009568;28;20524;-73
2021/08/27 10:13:56;;;;;;;14.00;8.82;;;;;;;-140.79;100.00;63287.88;5003376;28;20416;-72
2021/08/27 10:16:22;;;;;;;13.25;9.15;;;;;;;-140.79;100.00;63287.88;4997284;28;20066;-75
2021/08/27 10:18:47;;;;;;;11.93;8.80;;;;;;;-140.79;100.00;63287.88;4994769;28;20034;-71
2021/08/27 10:21:13;;;;;;;15.57;9.32;;;;;;;-140.79;100.00;63287.88;5002285;28;20038;-72
2021/08/27 10:23:38;;;;;;;14.00;9.05;;;;;;;-140.79;100.00;63287.88;4997453;28;20029;-72
2021/08/27 10:26:17;;;;;;;15.73;8.32;;;;;;;-140.79;100.00;63287.88;5001256;28;20161;-74
2021/08/27 10:28:43;;;;;;;11.57;8.55;;;;;;;-140.79;100.00;63287.88;4993152;28;20041;-72
2021/08/27 10:31:08;;;;;;;12.57;9.00;;;;;;;-140.79;100.00;63287.88;4990378;28;20030;-73
2021/08/27 10:33:40;;;;;;;10.80;7.95;;;;;;;-140.79;100.00;63287.88;4988430;28;20044;-73
2021/08/27 10:36:12;;;;;;;12.52;8.55;;;;;;;-140.79;100.00;63287.88;4991203;28;20026;-72
2021/08/27 10:38:51;;;;;;;12.27;8.57;;;;;;;-140.79;100.00;63287.88;4987463;28;20034;-72
2021/08/27 10:41:21;;;;;;;12.05;8.80;;;;;;;-140.79;100.00;63287.88;4990552;28;20130;-73
2021/08/27 10:44:01;;;;;;;12.07;8.15;;;;;;;-140.79;100.00;63287.88;4994676;28;20488;-74
2021/08/27 10:46:45;;;;;;;13.23;8.57;;;;;;;-140.79;100.00;63287.88;4999376;28;20037;-73
2021/08/27 10:49:14;;;;;;;14.48;8.95;;;;;;;-140.79;100.00;63287.88;4996710;28;20193;-73
2021/08/27 10:51:45;;;;;;;12.40;8.68;;;;;;;-140.79;100.00;63287.88;4997095;28;20018;-73
2021/08/27 10:54:14;;;;;;;11.05;8.45;;;;;;;-140.79;100.00;63287.88;5003001;28;20059;-74
2021/08/27 10:56:58;;;;;;;12.98;8.77;;;;;;;-140.79;100.00;63287.88;4998258;28;20394;-73
2021/08/27 10:59:24;;;;;;;13.65;9.10;;;;;;;-140.79;100.00;63287.88;4999792;28;20045;-73
2021/08/27 11:02:00;;;;;;;11.45;8.73;;;;;;;-140.79;100.00;63287.88;5006481;28;20041;-73
2021/08/27 11:04:26;;;;;;;11.70;8.60;;;;;;;-140.79;100.00;63287.88;5008447;28;20416;-74
2021/08/27 11:06:52;;;;;;;12.43;8.75;;;;;;;-140.79;100.00;63287.88;5008363;28;20029;-73